Strona główna
METAR-TAF:

METAR-TAF

Lotnisko :

Port lotniczy Sztokholm-Arlanda

Sztokholm-Arlanda, Szwecja

Szerokość geograficzna: 59-39N, Długość geograficzna: 017-57E, wysokość: 38 m

Aktualna obserwacja pogody

Raport powstał 18 minut temu, godzina 03:20 UTC
Wiatr 7 kt od zachodnio-północny zachód
Temperatura 3°C
Wilgotność 75%
Ciśnienie 1005 hPa
Widzialność 10 km lub więcej
Brak chmur poniżej 1500 m i brak chmur cumulonimbus

METAR: ESSA 240320Z 30007KT CAVOK 03/M01 Q1005 NOSIG

czas: 05:38 (03:38 UTC)

Prognoza

Raport powstał 4 godziny i 8 minut temu, godzina 23:30 UTC
Prognoza ważna od 24 godzina 00 UTC do 24 godzina 24 UTC
Wiatr 5 kt od północny zachód
Widzialność 10 km lub więcej
Brak chmur poniżej 1500 m i brak chmur cumulonimbus
Stopniowe zmiany
od 24 godzina 08 UTC do 24 godzina 10 UTC
Wiatr 15 kt od północny zachód w porywach dochodzący do 25 kt
Stopniowe zmiany
od 24 godzina 16 UTC do 24 godzina 18 UTC
Wiatr 5 kt od północny zachód

TAF: ESSA 232330Z 2400/2424 32005KT CAVOK BECMG 2408/2410 32015G25KT BECMG 2416/2418 32005KT

Obserwacja i prognoza pogody dla ponad 4000 lotnisk (raport METAR i TAF).

Dostępne stacje oznaczono żółtymi i czerwonymi punktami na mapie.

Najedź kursorem aby zobaczyć nazwę stacji.

Kliknij aby zobaczyć obserwacje i prognozy pogody.

Aby zmienić mapę: kliknij na zielony przycisk z czarnym krzyżykiem, aby powiększyć; na zielony przycisk z myślnikiem, aby pomniejszyć; na zielone strzałki, aby przejść do map sąsiednich.


METAR-TAF: